This is the latest recevied weather packets stored in our database for station/object OE3AOG. If no packets are shown the sender has not sent any weather packets the latest 10 day(s).
| Time | Temp. | Humidity | Pressure | Rain* | Wind** | Luminosity | Snow |
|---|---|---|---|---|---|---|---|
| 1777690523 | 11.67° C | 55% | 1023.4 hPa | 0 mm | - | 0 W/m² | - |
| 1777689923 | 11.67° C | 54% | 1023.4 hPa | 0 mm | - | 0 W/m² | - |
| 1777689332 | 12.22° C | 53% | 1023.4 hPa | 0 mm | - | 0 W/m² | - |
| 1777688723 | 12.22° C | 52% | 1023.5 hPa | 0 mm | - | 0 W/m² | - |
| 1777688131 | 11.67° C | 54% | 1023.5 hPa | 0 mm | - | 0 W/m² | - |
| 1777687523 | 11.11° C | 57% | 1023.5 hPa | 0 mm | - | 0 W/m² | - |
| 1777674324 | 13.33° C | 52% | 1024.4 hPa | 0 mm | - | 0 W/m² | - |
| 1777673124 | 12.78° C | 54% | 1024.4 hPa | 0 mm | - | 0 W/m² | - |
| 1777671324 | 13.33° C | 52% | 1024.3 hPa | 0 mm | - | 0 W/m² | - |
| 1777670724 | 13.33° C | 51% | 1024.4 hPa | 0 mm | - | 0 W/m² | - |
| 1777670132 | 13.89° C | 50% | 1024.3 hPa | 0 mm | - | 0 W/m² | - |
| 1777669523 | 13.89° C | 50% | 1024.4 hPa | 0 mm | - | 0 W/m² | - |
| 1777668931 | 13.89° C | 50% | 1024.4 hPa | 0 mm | - | 0 W/m² | - |
| 1777668324 | 13.33° C | 51% | 1024.4 hPa | 0 mm | - | 0 W/m² | - |
| 1777667724 | 13.33° C | 52% | 1024.4 hPa | 0 mm | - | 0 W/m² | - |
| 1777667116 | 13.33° C | 52% | 1024.4 hPa | 0 mm | - | 0 W/m² | - |
| 1777665916 | 13.89° C | 51% | 1024.4 hPa | 0 mm | - | 0 W/m² | - |
| 1777664116 | 13.89° C | 51% | 1024.4 hPa | 0 mm | - | 0 W/m² | - |
| 1777663524 | 13.89° C | 51% | 1024.4 hPa | 0 mm | - | 0 W/m² | - |
| 1777662924 | 14.44° C | 50% | 1024.4 hPa | 0 mm | - | 0 W/m² | - |
| 1777661724 | 14.44° C | 48% | 1024.2 hPa | 0 mm | - | 0 W/m² | - |
| 1777661116 | 14.44° C | 48% | 1024.2 hPa | 0 mm | - | 0 W/m² | - |
| 1777660524 | 14.44° C | 48% | 1024.1 hPa | 0 mm | - | 0 W/m² | - |
| 1777659924 | 15° C | 47% | 1024.1 hPa | 0 mm | - | 0 W/m² | - |
| 1777659316 | 15.56° C | 45% | 1024 hPa | 0 mm | - | 2 W/m² | - |
* Rain latest hour (hover to see other rain measurements)
** Current wind speed in m/s (hover to see current wind gust speed)